Time;durP1;ratioP1;P1;durP2;ratioP2;P2;SDS_P1;SDS_P2;PMS_P1;PMS_P2;Temp;Humidity;BMP_temperature;BMP_pressure;BME280_temperature;BME280_humidity;BME280_pressure;Samples;Min_cycle;Max_cycle;Signal;HPM_P1;HPM_P2
2023/03/08 00:02:44;;;;;;;34.33;21.15;;;;;;;6.01;60.93;96827.91;10220559;28;20464;-54
2023/03/08 00:07:43;;;;;;;35.95;23.48;;;;;;;5.85;61.18;96827.88;10214673;28;20485;-54
2023/03/08 00:12:42;;;;;;;40.63;23.08;;;;;;;5.85;61.24;96825.28;10219700;28;20130;-54
2023/03/08 00:17:41;;;;;;;41.28;24.45;;;;;;;5.80;61.50;96827.00;10212436;28;20149;-54
2023/03/08 00:22:41;;;;;;;39.65;23.65;;;;;;;5.67;61.21;96835.53;10211315;28;20130;-54
2023/03/08 00:27:40;;;;;;;45.75;27.70;;;;;;;5.64;62.31;96838.97;10212703;28;20062;-54
2023/03/08 00:32:39;;;;;;;48.60;29.75;;;;;;;4.83;62.27;96699.69;10220418;28;20035;-54
2023/03/08 00:37:38;;;;;;;44.45;26.98;;;;;;;5.63;62.94;96833.81;10219125;28;20117;-54
2023/03/08 00:42:37;;;;;;;41.00;25.88;;;;;;;5.57;62.79;96838.94;10220015;28;20041;-54
2023/03/08 00:47:37;;;;;;;33.47;21.65;;;;;;;5.50;63.04;96822.59;10211869;28;20034;-54
2023/03/08 00:52:35;;;;;;;35.13;19.27;;;;;;;5.39;63.43;96825.16;10219750;28;20066;-54
2023/03/08 00:57:34;;;;;;;27.90;16.67;;;;;;;5.38;63.18;96827.72;10211476;28;20023;-54
2023/03/08 01:02:33;;;;;;;30.92;18.67;;;;;;;5.12;63.71;96801.00;10220686;28;20042;-54
2023/03/08 01:07:32;;;;;;;34.20;20.75;;;;;;;5.22;64.13;96816.47;10212935;28;20771;-54
2023/03/08 01:12:32;;;;;;;58.05;32.22;;;;;;;5.02;64.67;96812.09;10219178;28;20133;-54
2023/03/08 01:17:31;;;;;;;43.17;25.67;;;;;;;5.08;64.57;96832.69;10207880;28;20121;-54
2023/03/08 01:22:30;;;;;;;43.25;24.75;;;;;;;5.05;64.47;96830.09;10218767;28;20038;-54
2023/03/08 01:27:29;;;;;;;48.67;24.85;;;;;;;5.06;64.53;96830.97;10210239;28;20062;-54
2023/03/08 01:32:28;;;;;;;36.42;21.67;;;;;;;5.07;65.12;96833.56;10218375;28;20049;-54
2023/03/08 01:37:27;;;;;;;33.65;18.98;;;;;;;4.98;65.05;96828.34;10219947;28;20023;-54
2023/03/08 01:42:27;;;;;;;23.80;14.40;;;;;;;4.97;64.92;96824.06;10218098;28;20045;-54
2023/03/08 01:47:28;;;;;;;22.80;12.65;;;;;;;4.81;65.98;96825.66;10208182;28;20066;-54
2023/03/08 01:52:37;;;;;;;20.77;12.30;;;;;;;4.02;66.44;96720.59;10204936;28;20070;-54
2023/03/08 01:57:39;;;;;;;20.17;10.43;;;;;;;4.81;65.38;96841.06;10209174;28;20069;-54
2023/03/08 02:02:51;;;;;;;15.60;9.60;;;;;;;4.77;65.62;96843.63;10211663;28;20062;-54
2023/03/08 02:07:50;;;;;;;12.82;7.85;;;;;;;4.74;65.38;96841.88;10209069;28;20704;-55
2023/03/08 02:12:49;;;;;;;12.10;8.23;;;;;;;4.72;65.38;96841.88;10216182;28;20478;-54
2023/03/08 02:17:48;;;;;;;39.97;24.73;;;;;;;4.67;66.17;96840.97;10208662;28;20136;-54
2023/03/08 02:22:50;;;;;;;19.30;10.50;;;;;;;4.65;66.06;96842.66;10216186;28;20077;-54
2023/03/08 02:27:51;;;;;;;18.55;11.38;;;;;;;4.59;66.25;96841.75;10204839;28;20058;-54
2023/03/08 02:32:50;;;;;;;17.67;11.13;;;;;;;4.57;66.32;96840.88;10216182;28;20058;-54
2023/03/08 02:37:49;;;;;;;19.55;11.15;;;;;;;4.58;66.02;96835.75;10223139;28;20050;-54
2023/03/08 02:42:48;;;;;;;19.45;10.00;;;;;;;4.61;66.07;96845.19;10207101;28;20073;-54
2023/03/08 02:47:48;;;;;;;17.77;10.13;;;;;;;4.43;66.65;96822.78;10207328;28;20029;-54
2023/03/08 02:52:47;;;;;;;14.82;9.05;;;;;;;4.52;67.08;96853.69;10216399;28;20073;-54
2023/03/08 02:57:45;;;;;;;14.23;8.63;;;;;;;4.51;66.62;96864.81;10206360;28;20029;-54
2023/03/08 03:02:44;;;;;;;16.45;9.32;;;;;;;4.48;66.54;96880.22;10206577;28;20860;-54
2023/03/08 03:07:43;;;;;;;15.70;9.82;;;;;;;4.45;66.99;96880.19;10206484;28;20548;-54
2023/03/08 03:12:43;;;;;;;19.10;10.95;;;;;;;4.46;66.69;96881.91;10215265;28;20074;-54
2023/03/08 03:17:42;;;;;;;23.58;12.32;;;;;;;4.47;66.11;96886.19;10206191;28;20114;-54
2023/03/08 03:22:40;;;;;;;17.55;10.02;;;;;;;4.45;66.27;96872.47;10214773;28;20035;-54
2023/03/08 03:27:39;;;;;;;16.70;9.55;;;;;;;4.43;66.70;96876.72;10204190;28;20041;-54
2023/03/08 03:32:38;;;;;;;15.60;9.48;;;;;;;4.42;67.46;96880.16;10214722;28;20084;-54
2023/03/08 03:37:37;;;;;;;25.35;13.95;;;;;;;3.74;67.98;96809.31;10205407;28;20474;-54
2023/03/08 03:42:37;;;;;;;28.35;15.13;;;;;;;4.03;69.22;96884.94;10214644;28;20066;-54
2023/03/08 03:47:35;;;;;;;22.10;14.25;;;;;;;4.13;68.28;96885.00;10205775;28;20069;-54
2023/03/08 03:52:34;;;;;;;24.77;13.98;;;;;;;4.12;68.49;96899.53;10214391;28;20042;-54
2023/03/08 03:57:33;;;;;;;28.98;17.38;;;;;;;3.77;70.31;96907.72;10203380;28;20141;-54
2023/03/08 04:02:32;;;;;;;29.75;17.27;;;;;;;3.65;71.55;96910.97;10213604;28;20049;-54
2023/03/08 04:07:32;;;;;;;25.35;14.63;;;;;;;3.82;70.63;96905.19;10205311;28;20054;-54
2023/03/08 04:12:31;;;;;;;22.30;12.70;;;;;;;3.90;70.02;96898.47;10213429;28;20071;-54
2023/03/08 04:17:30;;;;;;;23.17;11.90;;;;;;;4.04;69.75;96911.44;10205045;28;20126;-54
2023/03/08 04:22:29;;;;;;;23.40;13.23;;;;;;;4.16;69.23;96901.31;10213043;28;20059;-54
2023/03/08 04:27:28;;;;;;;20.45;13.15;;;;;;;4.16;68.81;96878.19;10207694;28;20105;-54
2023/03/08 04:32:27;;;;;;;34.45;22.02;;;;;;;4.20;68.74;96892.81;10211103;28;20031;-54
2023/03/08 04:37:26;;;;;;;23.65;14.15;;;;;;;4.26;68.39;96881.72;10214415;28;20041;-54
2023/03/08 04:42:25;;;;;;;24.27;14.63;;;;;;;4.13;68.86;96880.75;10216402;28;20062;-54
2023/03/08 04:47:24;;;;;;;45.03;23.42;;;;;;;3.43;72.42;96902.16;10212057;28;20033;-54
2023/03/08 04:52:23;;;;;;;37.33;19.90;;;;;;;3.32;71.72;96837.06;10220270;28;20149;-54
2023/03/08 04:57:22;;;;;;;;;;;;;;;3.67;71.39;96921.28;10211993;28;20070;-54
2023/03/08 05:02:22;;;;;;;27.40;15.65;;;;;;;3.79;71.55;96912.88;10234829;28;19957;-54
2023/03/08 05:07:21;;;;;;;21.38;13.15;;;;;;;3.99;70.65;96938.78;10209772;28;20077;-54
2023/03/08 05:12:20;;;;;;;22.35;12.10;;;;;;;4.17;70.75;96918.44;10218083;28;20085;-54
2023/03/08 05:17:19;;;;;;;23.42;15.90;;;;;;;4.23;70.90;96928.78;10210581;28;20027;-54
2023/03/08 05:22:18;;;;;;;24.88;14.77;;;;;;;4.53;70.35;96935.06;10209465;28;20042;-54
2023/03/08 05:27:17;;;;;;;31.30;18.88;;;;;;;4.08;69.94;96895.25;10210801;28;20133;-54
2023/03/08 05:32:16;;;;;;;28.67;19.90;;;;;;;4.56;69.22;96922.25;10217992;28;20185;-54
2023/03/08 05:37:15;;;;;;;35.60;20.23;;;;;;;4.81;69.52;96953.31;10220436;28;20133;-54
2023/03/08 05:42:14;;;;;;;40.58;20.83;;;;;;;4.95;68.86;96971.44;10209479;28;20041;-54
2023/03/08 05:47:13;;;;;;;52.42;34.22;;;;;;;5.01;68.73;96992.91;10217537;28;20035;-54
2023/03/08 05:52:12;;;;;;;51.97;32.53;;;;;;;5.26;67.97;96986.28;10219345;28;20028;-54
2023/03/08 05:57:10;;;;;;;61.33;35.00;;;;;;;5.30;67.64;96972.59;10213688;28;20109;-54
2023/03/08 06:02:09;;;;;;;84.38;35.58;;;;;;;5.59;66.82;97004.50;10208053;28;20031;-54
2023/03/08 06:07:08;;;;;;;45.30;25.30;;;;;;;5.69;66.85;97001.13;10221923;28;20732;-54
2023/03/08 06:12:07;;;;;;;41.35;23.23;;;;;;;5.88;66.68;97013.28;10212049;28;20125;-54
2023/03/08 06:17:06;;;;;;;39.47;21.77;;;;;;;6.19;65.96;97021.16;10215546;28;20138;-54
2023/03/08 06:22:05;;;;;;;40.47;22.13;;;;;;;6.62;64.14;97011.00;10221113;28;20030;-54
2023/03/08 06:27:04;;;;;;;38.83;19.85;;;;;;;6.88;63.35;97003.31;10212285;28;20484;-54
2023/03/08 06:32:04;;;;;;;38.17;18.98;;;;;;;7.02;63.21;96985.25;10214641;28;20109;-54
2023/03/08 06:37:03;;;;;;;31.73;20.90;;;;;;;7.38;61.54;97022.25;10210859;28;20114;-54
2023/03/08 06:42:02;;;;;;;31.10;18.42;;;;;;;7.84;61.26;97017.06;10215578;28;20019;-54
2023/03/08 06:47:00;;;;;;;44.53;18.55;;;;;;;7.88;59.53;96990.38;10212513;28;20093;-54
2023/03/08 06:51:59;;;;;;;30.52;17.05;;;;;;;8.50;58.82;97019.44;10215581;28;20397;-54
2023/03/08 06:56:58;;;;;;;37.33;17.60;;;;;;;8.95;58.34;97030.41;10206587;28;20027;-54
2023/03/08 07:01:57;;;;;;;22.38;11.68;;;;;;;9.29;58.49;97025.88;10208858;28;20118;-54
2023/03/08 07:06:58;;;;;;;9.10;5.07;;;;;;;9.75;56.80;97038.44;10208023;28;20073;-54
2023/03/08 07:11:56;;;;;;;5.72;3.30;;;;;;;10.16;55.56;97042.34;10207449;28;20074;-55
2023/03/08 07:16:56;;;;;;;8.68;4.00;;;;;;;10.67;55.07;97031.38;10206311;28;20034;-54
2023/03/08 07:21:54;;;;;;;7.80;4.03;;;;;;;11.07;53.26;97027.41;10205748;28;20062;-54
2023/03/08 07:26:53;;;;;;;11.48;4.30;;;;;;;11.40;51.50;97019.09;10209550;28;20109;-54
2023/03/08 07:31:52;;;;;;;9.90;3.65;;;;;;;11.89;49.62;97036.44;10205502;28;20118;-54
2023/03/08 07:36:51;;;;;;;4.38;2.75;;;;;;;12.24;47.59;97037.53;10234475;28;20037;-54
2023/03/08 07:41:50;;;;;;;7.07;3.40;;;;;;;12.66;46.74;97021.13;10207176;28;20803;-54
2023/03/08 07:46:49;;;;;;;6.30;3.13;;;;;;;12.97;45.07;97023.91;10213142;28;20122;-55
2023/03/08 07:51:50;;;;;;;8.35;3.03;;;;;;;13.00;43.44;96992.63;10212793;28;20126;-54
2023/03/08 07:56:50;;;;;;;5.10;2.58;;;;;;;13.49;42.64;97022.72;10213231;28;20118;-54
2023/03/08 08:01:49;;;;;;;6.22;2.67;;;;;;;13.54;40.92;97012.22;10209139;28;20082;-54
2023/03/08 08:06:49;;;;;;;8.43;3.67;;;;;;;13.50;40.61;96976.66;10233987;28;20069;-54
2023/03/08 08:11:48;;;;;;;7.78;3.10;;;;;;;14.02;40.37;97016.22;10212635;28;20126;-54
2023/03/08 08:16:47;;;;;;;;;;;;;;;14.30;39.24;97022.38;10216590;28;20106;-53
2023/03/08 08:21:45;;;;;;;5.95;3.25;;;;;;;14.40;38.32;97017.75;10211860;28;20044;-54
2023/03/08 08:26:44;;;;;;;;;;;;;;;14.67;37.61;97013.50;10220337;28;20109;-54
2023/03/08 08:31:43;;;;;;;9.38;2.63;;;;;;;14.99;37.56;97016.94;10214301;28;19914;-54
2023/03/08 08:36:42;;;;;;;;;;;;;;;15.36;35.22;97016.66;10226550;28;20536;-54
2023/03/08 08:41:41;;;;;;;9.30;2.78;;;;;;;15.46;34.86;97017.22;10221364;28;19917;-54
2023/03/08 08:46:40;;;;;;;5.72;2.58;;;;;;;15.77;33.76;97009.22;10223830;28;20662;-54
2023/03/08 08:51:39;;;;;;;9.45;2.65;;;;;;;16.21;33.85;97009.47;10224504;28;20592;-54
2023/03/08 08:56:41;;;;;;;7.93;3.25;;;;;;;16.46;32.69;97014.66;10215720;28;20416;-54
2023/03/08 09:01:42;;;;;;;5.80;2.55;;;;;;;16.75;31.82;97002.28;10226907;28;20154;-54
2023/03/08 09:06:41;;;;;;;6.05;2.65;;;;;;;17.00;31.78;97001.34;10222251;28;20070;-54
2023/03/08 09:11:43;;;;;;;5.15;2.92;;;;;;;17.11;31.49;97000.03;10222959;28;20061;-54
2023/03/08 09:16:43;;;;;;;9.18;3.65;;;;;;;17.18;31.45;97010.28;10226475;28;20153;-54
2023/03/08 09:21:43;;;;;;;7.20;3.53;;;;;;;17.33;30.93;97001.78;10217281;28;20062;-54
2023/03/08 09:26:42;;;;;;;6.30;3.25;;;;;;;17.47;30.59;96991.63;10215727;28;20133;-61
2023/03/08 09:31:44;;;;;;;8.38;3.67;;;;;;;17.27;30.78;96939.13;10225124;28;20077;-56
2023/03/08 09:36:43;;;;;;;7.55;3.28;;;;;;;17.67;30.86;97003.91;10215030;28;20070;-56
2023/03/08 09:42:02;;;;;;;10.23;4.25;;;;;;;17.56;30.59;96999.09;10206094;28;20045;-54
2023/03/08 09:47:05;;;;;;;;;;;;;;;17.62;30.65;97005.88;10215875;28;20121;-54
2023/03/08 09:52:13;;;;;;;6.50;3.05;;;;;;;17.35;30.79;96982.47;10217116;28;19996;-55
2023/03/08 09:57:22;;;;;;;4.32;2.30;;;;;;;17.34;31.83;96990.41;10218797;28;20114;-55
2023/03/08 10:02:42;;;;;;;4.00;2.17;;;;;;;17.09;31.12;96985.28;10204991;28;20468;-55
2023/03/08 10:07:48;;;;;;;10.35;3.58;;;;;;;16.57;31.96;96943.56;10214198;28;20114;-54
2023/03/08 10:13:06;;;;;;;3.50;2.10;;;;;;;16.64;31.52;96999.19;10207316;28;20078;-54
2023/03/08 10:18:16;;;;;;;10.93;2.65;;;;;;;16.67;32.92;96999.06;10215278;28;20483;-56
2023/03/08 10:23:19;;;;;;;6.22;2.10;;;;;;;16.89;32.45;96997.41;10225845;28;20078;-55
2023/03/08 10:28:21;;;;;;;3.35;1.70;;;;;;;17.11;33.11;96988.69;10210010;28;20162;-55
2023/03/08 10:33:25;;;;;;;21.10;7.68;;;;;;;17.26;32.43;96982.84;10220561;28;20145;-55
2023/03/08 10:38:30;;;;;;;3.97;2.03;;;;;;;17.47;32.90;96994.25;10216253;28;20066;-55
2023/03/08 10:43:38;;;;;;;6.28;2.00;;;;;;;16.94;32.22;96971.00;10225357;28;20626;-55
2023/03/08 10:48:37;;;;;;;20.50;9.98;;;;;;;16.68;33.15;96982.47;10209019;28;20050;-55
2023/03/08 10:53:36;;;;;;;4.47;2.30;;;;;;;17.17;34.29;96967.50;10215866;28;20057;-57
2023/03/08 10:58:37;;;;;;;4.85;2.20;;;;;;;17.27;33.56;96947.84;10208717;28;20078;-55
2023/03/08 11:03:36;;;;;;;5.45;2.58;;;;;;;17.56;32.30;96958.88;10215900;28;20066;-56
2023/03/08 11:08:38;;;;;;;4.68;2.20;;;;;;;17.65;32.57;96941.91;10210419;28;20014;-56
2023/03/08 11:13:46;;;;;;;3.75;1.42;;;;;;;17.18;31.76;96950.81;10227435;28;20129;-56
2023/03/08 11:18:54;;;;;;;5.77;1.87;;;;;;;17.03;32.65;96933.97;10211816;28;20129;-55
2023/03/08 11:24:07;;;;;;;3.97;1.65;;;;;;;17.04;33.11;96934.81;10220086;28;20054;-56
2023/03/08 11:29:25;;;;;;;8.90;2.33;;;;;;;17.10;32.47;96921.47;10212127;28;20069;-54
2023/03/08 11:34:59;;;;;;;1.85;1.67;;;;;;;17.17;32.68;96912.44;10220563;28;20066;-55
2023/03/08 11:40:30;;;;;;;7.10;3.17;;;;;;;17.93;32.28;96897.00;10226543;28;20761;-55
2023/03/08 11:45:40;;;;;;;10.45;3.10;;;;;;;18.17;31.09;96888.03;10240128;28;20097;-55
2023/03/08 11:50:47;;;;;;;4.55;2.10;;;;;;;18.47;30.71;96899.81;10222757;28;20068;-55
2023/03/08 11:56:10;;;;;;;2.42;1.90;;;;;;;18.21;31.48;96893.13;10218381;28;20480;-56
2023/03/08 12:01:31;;;;;;;3.08;1.90;;;;;;;17.79;31.32;96896.75;10223211;28;20562;-55
2023/03/08 12:06:36;;;;;;;5.32;2.40;;;;;;;16.92;32.44;96876.72;10219904;28;20113;-55
2023/03/08 12:11:46;;;;;;;5.82;2.72;;;;;;;16.99;33.53;96900.06;10219183;28;20066;-55
2023/03/08 12:17:03;;;;;;;3.10;2.22;;;;;;;17.12;32.69;96875.91;10218081;28;20562;-55
2023/03/08 12:22:27;;;;;;;4.20;2.13;;;;;;;16.47;33.39;96882.00;10227566;28;20066;-55
2023/03/08 12:27:48;;;;;;;3.67;2.42;;;;;;;16.61;33.53;96884.06;10217925;28;20070;-55
2023/03/08 12:32:49;;;;;;;4.13;1.92;;;;;;;16.38;33.61;96880.56;10219754;28;20065;-55
2023/03/08 12:38:00;;;;;;;12.45;2.58;;;;;;;16.44;34.18;96875.09;10226361;28;20053;-55
2023/03/08 12:43:12;;;;;;;3.10;1.83;;;;;;;16.37;33.28;96860.53;10219362;28;20104;-55
2023/03/08 12:48:34;;;;;;;3.80;1.88;;;;;;;16.44;33.76;96851.53;10218219;28;20469;-55
2023/03/08 12:53:45;;;;;;;3.95;2.25;;;;;;;16.85;32.78;96854.28;10208200;28;20062;-55
2023/03/08 12:58:56;;;;;;;5.15;2.00;;;;;;;17.24;32.80;96843.09;10219046;28;20109;-55
2023/03/08 13:03:55;;;;;;;4.18;2.00;;;;;;;17.29;32.88;96841.13;10211478;28;20460;-55
2023/03/08 13:09:28;;;;;;;8.30;4.32;;;;;;;17.34;32.67;96841.78;10208897;28;20062;-55
2023/03/08 13:14:42;;;;;;;6.25;2.58;;;;;;;17.31;32.45;96823.56;10210169;28;20097;-54
2023/03/08 13:19:41;;;;;;;5.03;2.72;;;;;;;17.71;31.95;96834.94;10214399;28;20467;-54
2023/03/08 13:24:54;;;;;;;5.50;2.15;;;;;;;17.81;32.35;96816.19;10207742;28;20066;-54
2023/03/08 13:29:54;;;;;;;3.53;2.33;;;;;;;18.07;31.86;96821.09;10216904;28;20063;-55
2023/03/08 13:35:01;;;;;;;5.03;2.40;;;;;;;18.10;31.13;96817.47;10216212;28;20138;-55
2023/03/08 13:40:00;;;;;;;4.68;2.10;;;;;;;18.18;30.69;96813.56;10222317;28;20125;-55
2023/03/08 13:45:16;;;;;;;4.22;2.60;;;;;;;18.25;30.49;96821.19;10210749;28;20078;-55
2023/03/08 13:50:25;;;;;;;5.80;2.50;;;;;;;18.14;30.03;96814.63;10226608;28;20057;-55
2023/03/08 13:55:32;;;;;;;5.40;2.72;;;;;;;17.51;29.81;96795.59;10209255;28;20070;-55
2023/03/08 14:00:34;;;;;;;5.07;2.00;;;;;;;17.64;30.53;96820.38;10219338;28;20064;-55
2023/03/08 14:05:40;;;;;;;2.78;1.98;;;;;;;17.53;30.53;96820.84;10215960;28;20121;-55
2023/03/08 14:10:49;;;;;;;2.70;2.15;;;;;;;17.36;30.30;96820.75;10216932;28;20497;-55
2023/03/08 14:15:54;;;;;;;3.13;1.83;;;;;;;17.14;30.17;96811.16;10206978;28;20497;-54
2023/03/08 14:21:14;;;;;;;5.88;2.75;;;;;;;17.26;30.56;96807.19;10209306;28;20130;-54
2023/03/08 14:26:33;;;;;;;4.65;2.25;;;;;;;17.39;30.80;96815.34;10209277;28;20500;-55
2023/03/08 14:31:32;;;;;;;4.13;2.40;;;;;;;17.50;30.00;96818.38;10206791;28;20821;-54
2023/03/08 14:36:32;;;;;;;6.35;1.95;;;;;;;17.48;30.03;96817.56;10211082;28;20137;-54
2023/03/08 14:41:34;;;;;;;6.63;2.10;;;;;;;17.53;30.22;96820.00;10207872;28;20058;-54
2023/03/08 14:46:33;;;;;;;6.00;2.30;;;;;;;17.55;30.23;96818.16;10210677;28;20423;-55
2023/03/08 14:51:42;;;;;;;3.15;2.30;;;;;;;17.18;30.47;96819.75;10209374;28;20116;-54
2023/03/08 14:56:41;;;;;;;4.00;1.67;;;;;;;17.01;30.39;96811.75;10203133;28;20085;-55
2023/03/08 15:01:39;;;;;;;8.93;2.15;;;;;;;16.70;30.68;96819.06;10214384;28;20038;-55
2023/03/08 15:06:39;;;;;;;4.60;1.92;;;;;;;16.54;31.37;96815.34;10209088;28;20117;-55
2023/03/08 15:11:38;;;;;;;5.03;2.63;;;;;;;16.66;31.55;96822.72;10220165;28;20117;-55
2023/03/08 15:16:37;;;;;;;8.70;3.33;;;;;;;16.50;32.05;96804.13;10218287;28;20065;-55
2023/03/08 15:21:36;;;;;;;5.05;2.42;;;;;;;16.57;31.58;96814.38;10207791;28;20066;-54
2023/03/08 15:26:35;;;;;;;12.65;4.10;;;;;;;16.65;31.78;96826.25;10221172;28;20066;-54
2023/03/08 15:31:34;;;;;;;8.50;3.67;;;;;;;16.45;31.97;96813.09;10208663;28;20042;-54
2023/03/08 15:36:34;;;;;;;8.32;4.20;;;;;;;16.16;32.93;96827.31;10211233;28;20563;-55
2023/03/08 15:41:33;;;;;;;7.03;3.67;;;;;;;16.03;33.72;96830.41;10211098;28;20077;-55
2023/03/08 15:46:32;;;;;;;8.73;3.30;;;;;;;15.82;34.38;96836.44;10204641;28;20117;-55
2023/03/08 15:51:35;;;;;;;4.43;2.60;;;;;;;15.68;34.90;96832.53;10203309;28;20047;-55
2023/03/08 15:56:34;;;;;;;8.13;3.40;;;;;;;15.43;34.87;96829.06;10203086;28;20068;-55
2023/03/08 16:01:33;;;;;;;11.07;4.28;;;;;;;15.26;35.35;96829.66;10202698;28;20126;-56
2023/03/08 16:06:32;;;;;;;;;;;;;;;15.16;35.87;96829.13;10211341;28;20027;-56
2023/03/08 16:11:30;;;;;;;13.30;4.87;;;;;;;15.09;36.34;96826.78;10210605;28;20428;-56
2023/03/08 16:16:29;;;;;;;;;;;;;;;14.93;36.48;96819.44;10202779;28;20053;-56
2023/03/08 16:21:28;;;;;;;10.65;6.22;;;;;;;14.79;36.38;96824.28;10209733;28;19920;-56
2023/03/08 16:26:27;;;;;;;;;;;;;;;14.58;36.21;96823.19;10210974;28;20105;-56
2023/03/08 16:31:26;;;;;;;10.70;5.57;;;;;;;14.35;36.75;96811.69;10216400;28;19967;-56
2023/03/08 16:36:25;;;;;;;;;;;;;;;14.19;36.56;96808.72;10210917;28;20082;-56
2023/03/08 16:41:25;;;;;;;36.65;19.83;;;;;;;14.03;36.96;96819.66;10209527;28;19970;-54
2023/03/08 16:46:24;;;;;;;31.02;21.67;;;;;;;13.87;37.61;96814.06;10208670;28;20074;-54
2023/03/08 16:51:24;;;;;;;;;;;;;;;13.70;38.30;96830.16;10217937;28;20050;-54
2023/03/08 16:56:25;;;;;;;44.83;20.50;;;;;;;13.51;38.76;96833.25;10209568;28;19957;-54
2023/03/08 17:01:25;;;;;;;37.80;21.98;;;;;;;13.35;39.01;96837.16;10228431;28;20085;-54
2023/03/08 17:06:27;;;;;;;38.30;22.08;;;;;;;13.17;39.37;96854.16;10210880;28;20120;-54
2023/03/08 17:11:29;;;;;;;46.00;26.10;;;;;;;12.96;39.89;96858.16;10214759;28;20082;-55
2023/03/08 17:16:29;;;;;;;55.88;25.98;;;;;;;12.80;40.57;96867.25;10206888;28;20066;-54
2023/03/08 17:21:30;;;;;;;48.83;27.90;;;;;;;12.50;40.83;96846.25;10213530;28;20080;-54
2023/03/08 17:26:29;;;;;;;77.47;39.25;;;;;;;12.44;41.57;96864.63;10206553;28;20063;-54
2023/03/08 17:31:28;;;;;;;44.20;27.27;;;;;;;12.29;41.70;96881.41;10214983;28;20030;-54
2023/03/08 17:36:27;;;;;;;59.63;31.38;;;;;;;11.85;42.52;96847.63;10210642;28;20109;-54
2023/03/08 17:41:26;;;;;;;62.92;37.72;;;;;;;11.84;44.01;96913.50;10214701;28;20026;-54
2023/03/08 17:46:26;;;;;;;;;;;;;;;11.85;44.27;96938.63;10206954;28;20058;-54
2023/03/08 17:51:28;;;;;;;15.35;9.05;;;;;;;11.65;44.95;96938.13;10215131;28;19961;-54
2023/03/08 17:56:30;;;;;;;16.60;7.57;;;;;;;11.19;44.22;96898.22;10209374;28;20117;-54
2023/03/08 18:01:30;;;;;;;23.85;12.32;;;;;;;11.11;46.45;96925.22;10217702;28;20648;-57
2023/03/08 18:06:36;;;;;;;23.20;13.15;;;;;;;11.24;46.33;96976.06;10232905;28;20125;-54
2023/03/08 18:11:39;;;;;;;29.20;19.55;;;;;;;10.70;48.05;96924.09;10216998;28;20479;-54
2023/03/08 18:16:39;;;;;;;48.92;35.22;;;;;;;10.83;47.85;96982.72;10203498;28;20520;-54
2023/03/08 18:21:39;;;;;;;52.70;33.17;;;;;;;10.62;48.61;96981.28;10201687;28;20130;-54
2023/03/08 18:26:37;;;;;;;;;;;;;;;10.50;49.86;96984.06;10202834;28;20560;-54
2023/03/08 18:31:37;;;;;;;42.17;26.60;;;;;;;10.41;49.14;96974.66;10206385;28;20384;-54
2023/03/08 18:36:37;;;;;;;37.83;25.13;;;;;;;10.46;49.75;96972.00;10208248;28;20073;-54
2023/03/08 18:41:36;;;;;;;37.58;21.95;;;;;;;10.36;49.37;96979.03;10213502;28;20114;-53
2023/03/08 18:46:35;;;;;;;47.13;30.67;;;;;;;10.09;50.12;96962.06;10199544;28;20134;-53
2023/03/08 18:51:36;;;;;;;72.63;45.42;;;;;;;10.13;49.93;96977.56;10214720;28;20034;-53
2023/03/08 18:56:35;;;;;;;36.85;25.50;;;;;;;10.11;50.64;96966.34;10199570;28;20121;-53
2023/03/08 19:01:35;;;;;;;41.42;25.88;;;;;;;10.13;50.62;96967.19;10207907;28;20117;-54
2023/03/08 19:06:35;;;;;;;44.83;29.60;;;;;;;10.19;50.29;96985.28;10200154;28;20050;-54
2023/03/08 19:11:34;;;;;;;56.63;38.60;;;;;;;10.10;50.54;96990.56;10199553;28;20189;-54
2023/03/08 19:16:34;;;;;;;58.85;37.42;;;;;;;10.02;50.60;96982.00;10199098;28;20394;-54
2023/03/08 19:21:41;;;;;;;72.43;43.88;;;;;;;10.10;50.29;96994.91;10207430;28;20464;-54
2023/03/08 19:26:41;;;;;;;72.30;45.47;;;;;;;10.11;50.80;96988.84;10223946;28;20408;-54
2023/03/08 19:31:45;;;;;;;49.50;34.55;;;;;;;10.07;50.77;96989.75;10202513;28;20070;-54
2023/03/08 19:36:45;;;;;;;38.65;24.50;;;;;;;10.06;50.68;97003.59;10207985;28;20125;-54
2023/03/08 19:41:47;;;;;;;31.48;17.15;;;;;;;10.06;49.99;97003.59;10207621;28;20457;-54
2023/03/08 19:46:46;;;;;;;49.20;33.17;;;;;;;10.03;49.98;96994.13;10207947;28;20066;-54
2023/03/08 19:51:46;;;;;;;;;;;;;;;10.06;50.40;96994.06;10198743;28;20081;-54
2023/03/08 19:56:46;;;;;;;69.28;46.55;;;;;;;9.92;50.82;96990.78;10198169;28;20105;-54
2023/03/08 20:01:45;;;;;;;79.03;52.05;;;;;;;9.79;51.64;97021.13;10214839;28;20122;-54
2023/03/08 20:06:45;;;;;;;83.43;56.60;;;;;;;9.54;52.74;97030.88;10208557;28;20093;-54
2023/03/08 20:11:44;;;;;;;90.75;60.10;;;;;;;9.12;53.04;97001.81;10211739;28;20122;-54
2023/03/08 20:16:43;;;;;;;67.70;45.38;;;;;;;9.19;53.61;97023.34;10204861;28;20049;-54
2023/03/08 20:21:43;;;;;;;44.53;30.63;;;;;;;9.10;53.24;97027.72;10214257;28;20512;-54
2023/03/08 20:26:42;;;;;;;30.27;18.80;;;;;;;9.07;51.76;97022.56;10216421;28;20062;-54
2023/03/08 20:31:41;;;;;;;24.77;16.10;;;;;;;8.93;51.62;96995.94;10212896;28;20372;-54
2023/03/08 20:36:40;;;;;;;13.43;8.35;;;;;;;9.27;50.73;97027.59;10213286;28;20527;-54
2023/03/08 20:41:39;;;;;;;8.57;3.90;;;;;;;9.37;49.99;97040.50;10216503;28;20599;-54
2023/03/08 20:46:38;;;;;;;9.57;3.90;;;;;;;9.43;49.26;97017.16;10204432;28;20027;-55
2023/03/08 20:51:37;;;;;;;6.63;2.97;;;;;;;9.30;48.79;96970.66;10213808;28;20019;-54
2023/03/08 20:56:36;;;;;;;6.18;3.25;;;;;;;9.75;48.29;97015.13;10213818;28;20209;-54
2023/03/08 21:01:35;;;;;;;6.55;3.47;;;;;;;9.93;47.67;97008.03;10207119;28;20117;-54
2023/03/08 21:06:34;;;;;;;6.20;3.67;;;;;;;10.14;46.97;97007.81;10205014;28;20073;-54
2023/03/08 21:11:33;;;;;;;5.53;3.20;;;;;;;10.39;45.96;97002.34;10212234;28;20118;-55
2023/03/08 21:16:33;;;;;;;6.72;3.88;;;;;;;10.25;45.84;96957.56;10205231;28;20055;-54
2023/03/08 21:21:39;;;;;;;10.35;4.93;;;;;;;10.49;46.57;97003.91;10213470;28;20122;-55
2023/03/08 21:26:39;;;;;;;5.85;3.25;;;;;;;10.43;45.76;97009.19;10205184;28;20153;-54
2023/03/08 21:31:41;;;;;;;58.58;27.02;;;;;;;10.43;45.98;96988.44;10213368;28;20081;-54
2023/03/08 21:36:40;;;;;;;15.90;7.65;;;;;;;10.60;45.39;96996.00;10221172;28;20077;-54
2023/03/08 21:41:43;;;;;;;5.43;3.05;;;;;;;10.61;45.92;96987.34;10212632;28;20070;-54
2023/03/08 21:46:43;;;;;;;6.60;3.53;;;;;;;10.55;45.85;96957.16;10220271;28;20463;-54
2023/03/08 21:51:42;;;;;;;8.70;5.07;;;;;;;10.82;46.03;96975.78;10213055;28;20062;-54
2023/03/08 21:56:41;;;;;;;8.57;4.53;;;;;;;10.82;45.22;96976.69;10219351;28;20062;-54
2023/03/08 22:01:44;;;;;;;11.93;5.75;;;;;;;10.91;45.83;96965.31;10211477;28;20080;-54
2023/03/08 22:06:43;;;;;;;14.57;9.20;;;;;;;10.91;45.34;96967.06;10219138;28;20153;-54
2023/03/08 22:11:42;;;;;;;10.65;6.30;;;;;;;10.86;45.69;96987.84;10211880;28;20054;-55
2023/03/08 22:16:41;;;;;;;7.05;4.47;;;;;;;10.84;46.47;96974.03;10219586;28;20054;-55
2023/03/08 22:21:40;;;;;;;8.23;5.10;;;;;;;10.78;46.28;96974.16;10210942;28;20505;-55
2023/03/08 22:26:39;;;;;;;10.32;7.25;;;;;;;10.90;45.56;96970.56;10218506;28;20125;-55
2023/03/08 22:31:38;;;;;;;6.55;3.20;;;;;;;11.00;45.23;96978.16;10202651;28;20356;-54
2023/03/08 22:36:37;;;;;;;12.05;6.45;;;;;;;11.00;45.14;96996.34;10213425;28;20034;-55
2023/03/08 22:41:36;;;;;;;10.23;5.10;;;;;;;11.08;45.13;96992.75;10209837;28;20114;-55
2023/03/08 22:46:35;;;;;;;5.90;3.63;;;;;;;11.10;45.14;96994.44;10219850;28;20089;-55
2023/03/08 22:51:35;;;;;;;8.93;4.00;;;;;;;10.74;44.63;96994.09;10209845;28;20038;-55
2023/03/08 22:56:34;;;;;;;7.45;3.35;;;;;;;11.09;44.63;96973.72;10218044;28;20078;-55
2023/03/08 23:01:33;;;;;;;5.93;3.08;;;;;;;11.24;43.86;96992.53;10209272;28;20066;-55
2023/03/08 23:06:33;;;;;;;5.22;2.83;;;;;;;11.23;44.89;96982.16;10199343;28;20113;-55
2023/03/08 23:11:33;;;;;;;7.15;3.35;;;;;;;11.15;44.27;96989.19;10205304;28;20113;-55
2023/03/08 23:16:33;;;;;;;11.15;5.57;;;;;;;11.11;44.01;96983.19;10202701;28;20134;-55
2023/03/08 23:21:34;;;;;;;10.70;5.22;;;;;;;11.25;43.54;96985.56;10205296;28;20532;-55